sensor_id;sensor_type;location;lat;lon;timestamp;P1;durP1;ratioP1;P2;durP2;ratioP2
16727;SDS011;8482;54.396;18.590;2022-09-03T00:00:57;1.63;;;0.80;;
16727;SDS011;8482;54.396;18.590;2022-09-03T00:03:43;1.35;;;0.80;;
16727;SDS011;8482;54.396;18.590;2022-09-03T00:08:58;1.23;;;0.80;;
16727;SDS011;8482;54.396;18.590;2022-09-03T00:11:49;1.70;;;1.00;;
16727;SDS011;8482;54.396;18.590;2022-09-03T00:14:41;1.80;;;0.80;;
16727;SDS011;8482;54.396;18.590;2022-09-03T00:17:19;2.45;;;1.00;;
16727;SDS011;8482;54.396;18.590;2022-09-03T00:19:55;1.52;;;0.93;;
16727;SDS011;8482;54.396;18.590;2022-09-03T00:22:33;1.67;;;0.98;;
16727;SDS011;8482;54.396;18.590;2022-09-03T00:25:06;1.15;;;0.77;;
16727;SDS011;8482;54.396;18.590;2022-09-03T00:27:39;0.77;;;0.70;;
16727;SDS011;8482;54.396;18.590;2022-09-03T00:30:10;0.80;;;0.70;;
16727;SDS011;8482;54.396;18.590;2022-09-03T00:35:35;1.17;;;0.70;;
16727;SDS011;8482;54.396;18.590;2022-09-03T00:38:19;1.20;;;0.70;;
16727;SDS011;8482;54.396;18.590;2022-09-03T01:00:55;1.33;;;0.80;;
16727;SDS011;8482;54.396;18.590;2022-09-03T01:03:36;1.73;;;0.80;;
16727;SDS011;8482;54.396;18.590;2022-09-03T01:06:45;1.27;;;0.90;;
16727;SDS011;8482;54.396;18.590;2022-09-03T01:13:01;0.73;;;0.70;;
16727;SDS011;8482;54.396;18.590;2022-09-03T01:22:23;2.13;;;0.90;;
16727;SDS011;8482;54.396;18.590;2022-09-03T01:30:41;0.80;;;0.80;;
16727;SDS011;8482;54.396;18.590;2022-09-03T01:35:56;0.73;;;0.70;;
16727;SDS011;8482;54.396;18.590;2022-09-03T01:38:40;0.75;;;0.70;;
16727;SDS011;8482;54.396;18.590;2022-09-03T01:41:19;1.45;;;0.80;;
16727;SDS011;8482;54.396;18.590;2022-09-03T01:47:34;2.15;;;0.90;;
16727;SDS011;8482;54.396;18.590;2022-09-03T01:53:37;1.52;;;0.95;;
16727;SDS011;8482;54.396;18.590;2022-09-03T01:56:59;1.42;;;0.80;;
16727;SDS011;8482;54.396;18.590;2022-09-03T01:59:43;1.17;;;0.80;;
16727;SDS011;8482;54.396;18.590;2022-09-03T02:02:34;1.60;;;0.77;;
16727;SDS011;8482;54.396;18.590;2022-09-03T02:05:05;1.63;;;0.75;;
16727;SDS011;8482;54.396;18.590;2022-09-03T02:07:40;1.10;;;0.90;;
16727;SDS011;8482;54.396;18.590;2022-09-03T02:10:29;0.85;;;0.70;;
16727;SDS011;8482;54.396;18.590;2022-09-03T02:13:09;1.08;;;0.68;;
16727;SDS011;8482;54.396;18.590;2022-09-03T02:15:52;0.88;;;0.70;;
16727;SDS011;8482;54.396;18.590;2022-09-03T02:18:26;0.95;;;0.75;;
16727;SDS011;8482;54.396;18.590;2022-09-03T02:20:58;1.02;;;0.65;;
16727;SDS011;8482;54.396;18.590;2022-09-03T02:23:24;1.55;;;0.75;;
16727;SDS011;8482;54.396;18.590;2022-09-03T02:25:54;0.60;;;0.60;;
16727;SDS011;8482;54.396;18.590;2022-09-03T02:28:24;1.08;;;0.70;;
16727;SDS011;8482;54.396;18.590;2022-09-03T02:30:53;1.48;;;0.80;;
16727;SDS011;8482;54.396;18.590;2022-09-03T02:33:19;0.73;;;0.57;;
16727;SDS011;8482;54.396;18.590;2022-09-03T02:35:45;0.98;;;0.80;;
16727;SDS011;8482;54.396;18.590;2022-09-03T02:38:19;0.80;;;0.70;;
16727;SDS011;8482;54.396;18.590;2022-09-03T02:40:50;1.55;;;0.60;;
16727;SDS011;8482;54.396;18.590;2022-09-03T02:43:20;0.80;;;0.70;;
16727;SDS011;8482;54.396;18.590;2022-09-03T02:45:56;0.70;;;0.70;;
16727;SDS011;8482;54.396;18.590;2022-09-03T02:48:27;0.70;;;0.70;;
16727;SDS011;8482;54.396;18.590;2022-09-03T02:50:53;0.70;;;0.68;;
16727;SDS011;8482;54.396;18.590;2022-09-03T02:53:19;0.88;;;0.80;;
16727;SDS011;8482;54.396;18.590;2022-09-03T02:55:45;1.33;;;0.70;;
16727;SDS011;8482;54.396;18.590;2022-09-03T02:58:11;1.05;;;0.80;;
16727;SDS011;8482;54.396;18.590;2022-09-03T03:00:37;0.60;;;0.60;;
16727;SDS011;8482;54.396;18.590;2022-09-03T03:03:04;1.23;;;0.82;;
16727;SDS011;8482;54.396;18.590;2022-09-03T03:05:37;0.50;;;0.50;;
16727;SDS011;8482;54.396;18.590;2022-09-03T03:08:12;1.52;;;0.75;;
16727;SDS011;8482;54.396;18.590;2022-09-03T03:10:39;0.63;;;0.63;;
16727;SDS011;8482;54.396;18.590;2022-09-03T03:13:07;1.65;;;0.82;;
16727;SDS011;8482;54.396;18.590;2022-09-03T03:15:33;0.77;;;0.68;;
16727;SDS011;8482;54.396;18.590;2022-09-03T03:17:59;2.15;;;0.70;;
16727;SDS011;8482;54.396;18.590;2022-09-03T03:20:24;0.50;;;0.50;;
16727;SDS011;8482;54.396;18.590;2022-09-03T03:22:50;0.73;;;0.65;;
16727;SDS011;8482;54.396;18.590;2022-09-03T03:25:16;0.75;;;0.65;;
16727;SDS011;8482;54.396;18.590;2022-09-03T03:27:42;0.55;;;0.55;;
16727;SDS011;8482;54.396;18.590;2022-09-03T03:30:08;0.73;;;0.70;;
16727;SDS011;8482;54.396;18.590;2022-09-03T03:32:36;0.60;;;0.60;;
16727;SDS011;8482;54.396;18.590;2022-09-03T03:35:03;1.20;;;0.90;;
16727;SDS011;8482;54.396;18.590;2022-09-03T03:37:30;0.88;;;0.80;;
16727;SDS011;8482;54.396;18.590;2022-09-03T03:39:57;0.95;;;0.70;;
16727;SDS011;8482;54.396;18.590;2022-09-03T03:42:23;1.00;;;0.70;;
16727;SDS011;8482;54.396;18.590;2022-09-03T03:44:49;0.93;;;0.60;;
16727;SDS011;8482;54.396;18.590;2022-09-03T03:47:15;0.82;;;0.77;;
16727;SDS011;8482;54.396;18.590;2022-09-03T03:49:42;0.90;;;0.75;;
16727;SDS011;8482;54.396;18.590;2022-09-03T03:52:09;0.65;;;0.65;;
16727;SDS011;8482;54.396;18.590;2022-09-03T03:54:35;0.60;;;0.60;;
16727;SDS011;8482;54.396;18.590;2022-09-03T03:57:00;0.60;;;0.60;;
16727;SDS011;8482;54.396;18.590;2022-09-03T03:59:26;0.63;;;0.60;;
16727;SDS011;8482;54.396;18.590;2022-09-03T04:01:55;1.08;;;0.80;;
16727;SDS011;8482;54.396;18.590;2022-09-03T04:04:21;0.82;;;0.80;;
16727;SDS011;8482;54.396;18.590;2022-09-03T04:06:47;0.98;;;0.70;;
16727;SDS011;8482;54.396;18.590;2022-09-03T04:09:13;0.65;;;0.60;;
16727;SDS011;8482;54.396;18.590;2022-09-03T04:11:38;1.45;;;0.80;;
16727;SDS011;8482;54.396;18.590;2022-09-03T04:14:04;0.68;;;0.68;;
16727;SDS011;8482;54.396;18.590;2022-09-03T04:16:30;0.93;;;0.70;;
16727;SDS011;8482;54.396;18.590;2022-09-03T04:18:56;1.30;;;0.80;;
16727;SDS011;8482;54.396;18.590;2022-09-03T04:21:23;1.20;;;0.75;;
16727;SDS011;8482;54.396;18.590;2022-09-03T04:23:53;2.13;;;0.82;;
16727;SDS011;8482;54.396;18.590;2022-09-03T04:26:20;1.15;;;0.80;;
16727;SDS011;8482;54.396;18.590;2022-09-03T04:28:55;1.48;;;0.80;;
16727;SDS011;8482;54.396;18.590;2022-09-03T04:31:22;2.55;;;0.88;;
16727;SDS011;8482;54.396;18.590;2022-09-03T04:33:47;0.77;;;0.70;;
16727;SDS011;8482;54.396;18.590;2022-09-03T04:36:14;1.52;;;0.90;;
16727;SDS011;8482;54.396;18.590;2022-09-03T04:38:45;1.63;;;0.93;;
16727;SDS011;8482;54.396;18.590;2022-09-03T04:41:13;1.02;;;0.85;;
16727;SDS011;8482;54.396;18.590;2022-09-03T04:43:42;1.50;;;0.70;;
16727;SDS011;8482;54.396;18.590;2022-09-03T04:46:10;1.58;;;0.80;;
16727;SDS011;8482;54.396;18.590;2022-09-03T04:48:38;1.33;;;0.90;;
16727;SDS011;8482;54.396;18.590;2022-09-03T04:51:09;0.80;;;0.80;;
16727;SDS011;8482;54.396;18.590;2022-09-03T04:53:44;1.50;;;0.80;;
16727;SDS011;8482;54.396;18.590;2022-09-03T04:58:42;1.80;;;0.90;;
16727;SDS011;8482;54.396;18.590;2022-09-03T05:01:15;1.00;;;0.80;;
16727;SDS011;8482;54.396;18.590;2022-09-03T05:03:46;0.70;;;0.70;;
16727;SDS011;8482;54.396;18.590;2022-09-03T05:06:12;1.85;;;0.85;;
16727;SDS011;8482;54.396;18.590;2022-09-03T05:08:40;0.70;;;0.70;;
16727;SDS011;8482;54.396;18.590;2022-09-03T05:11:10;1.40;;;1.00;;
16727;SDS011;8482;54.396;18.590;2022-09-03T05:13:36;1.20;;;0.90;;
16727;SDS011;8482;54.396;18.590;2022-09-03T05:16:03;1.23;;;0.77;;
16727;SDS011;8482;54.396;18.590;2022-09-03T05:18:33;0.70;;;0.70;;
16727;SDS011;8482;54.396;18.590;2022-09-03T05:21:09;1.38;;;0.80;;
16727;SDS011;8482;54.396;18.590;2022-09-03T05:23:41;1.13;;;0.85;;
16727;SDS011;8482;54.396;18.590;2022-09-03T05:26:17;1.33;;;0.93;;
16727;SDS011;8482;54.396;18.590;2022-09-03T05:28:46;1.05;;;0.90;;
16727;SDS011;8482;54.396;18.590;2022-09-03T05:31:18;1.95;;;1.02;;
16727;SDS011;8482;54.396;18.590;2022-09-03T05:33:45;2.25;;;1.00;;
16727;SDS011;8482;54.396;18.590;2022-09-03T05:36:18;1.40;;;1.00;;
16727;SDS011;8482;54.396;18.590;2022-09-03T05:38:47;2.22;;;1.00;;
16727;SDS011;8482;54.396;18.590;2022-09-03T05:41:14;1.65;;;0.93;;
16727;SDS011;8482;54.396;18.590;2022-09-03T05:43:42;1.98;;;0.88;;
16727;SDS011;8482;54.396;18.590;2022-09-03T05:46:12;1.77;;;1.10;;
16727;SDS011;8482;54.396;18.590;2022-09-03T05:48:42;1.77;;;0.90;;
16727;SDS011;8482;54.396;18.590;2022-09-03T05:51:10;0.95;;;0.77;;
16727;SDS011;8482;54.396;18.590;2022-09-03T05:53:41;1.17;;;0.90;;
16727;SDS011;8482;54.396;18.590;2022-09-03T05:56:13;1.52;;;0.90;;
16727;SDS011;8482;54.396;18.590;2022-09-03T05:58:42;1.90;;;1.10;;
16727;SDS011;8482;54.396;18.590;2022-09-03T06:01:15;2.03;;;0.90;;
16727;SDS011;8482;54.396;18.590;2022-09-03T06:03:54;0.63;;;0.63;;
16727;SDS011;8482;54.396;18.590;2022-09-03T06:06:26;2.17;;;1.00;;
16727;SDS011;8482;54.396;18.590;2022-09-03T06:08:56;1.67;;;0.80;;
16727;SDS011;8482;54.396;18.590;2022-09-03T06:11:26;1.35;;;1.02;;
16727;SDS011;8482;54.396;18.590;2022-09-03T06:14:03;1.20;;;0.90;;
16727;SDS011;8482;54.396;18.590;2022-09-03T06:16:34;1.40;;;1.00;;
16727;SDS011;8482;54.396;18.590;2022-09-03T06:19:03;1.55;;;1.00;;
16727;SDS011;8482;54.396;18.590;2022-09-03T06:21:31;1.23;;;1.00;;
16727;SDS011;8482;54.396;18.590;2022-09-03T06:23:57;1.50;;;1.10;;
16727;SDS011;8482;54.396;18.590;2022-09-03T06:26:23;1.67;;;1.08;;
16727;SDS011;8482;54.396;18.590;2022-09-03T06:28:50;0.85;;;0.82;;
16727;SDS011;8482;54.396;18.590;2022-09-03T06:31:19;1.10;;;0.85;;
16727;SDS011;8482;54.396;18.590;2022-09-03T06:33:46;1.33;;;0.90;;
16727;SDS011;8482;54.396;18.590;2022-09-03T06:36:13;1.15;;;0.80;;
16727;SDS011;8482;54.396;18.590;2022-09-03T06:38:42;2.03;;;1.20;;
16727;SDS011;8482;54.396;18.590;2022-09-03T06:41:13;2.03;;;1.02;;
16727;SDS011;8482;54.396;18.590;2022-09-03T06:43:48;2.08;;;1.00;;
16727;SDS011;8482;54.396;18.590;2022-09-03T06:46:23;1.75;;;1.20;;
16727;SDS011;8482;54.396;18.590;2022-09-03T06:48:49;1.75;;;1.00;;
16727;SDS011;8482;54.396;18.590;2022-09-03T06:51:16;1.63;;;0.80;;
16727;SDS011;8482;54.396;18.590;2022-09-03T06:53:52;2.47;;;1.10;;
16727;SDS011;8482;54.396;18.590;2022-09-03T06:56:24;2.08;;;1.17;;
16727;SDS011;8482;54.396;18.590;2022-09-03T06:58:51;2.67;;;1.20;;
16727;SDS011;8482;54.396;18.590;2022-09-03T07:01:21;3.47;;;1.63;;
16727;SDS011;8482;54.396;18.590;2022-09-03T07:03:54;2.25;;;1.30;;
16727;SDS011;8482;54.396;18.590;2022-09-03T07:06:26;2.58;;;1.35;;
16727;SDS011;8482;54.396;18.590;2022-09-03T07:08:54;3.47;;;1.23;;
16727;SDS011;8482;54.396;18.590;2022-09-03T07:11:22;2.22;;;1.30;;
16727;SDS011;8482;54.396;18.590;2022-09-03T07:13:54;2.83;;;1.20;;
16727;SDS011;8482;54.396;18.590;2022-09-03T07:16:26;2.00;;;1.08;;
16727;SDS011;8482;54.396;18.590;2022-09-03T07:19:00;2.35;;;1.25;;
16727;SDS011;8482;54.396;18.590;2022-09-03T07:21:29;2.03;;;1.00;;
16727;SDS011;8482;54.396;18.590;2022-09-03T07:23:58;1.98;;;1.25;;
16727;SDS011;8482;54.396;18.590;2022-09-03T07:26:28;1.90;;;1.08;;
16727;SDS011;8482;54.396;18.590;2022-09-03T07:28:57;1.48;;;1.00;;
16727;SDS011;8482;54.396;18.590;2022-09-03T07:31:27;3.17;;;1.70;;
16727;SDS011;8482;54.396;18.590;2022-09-03T07:34:00;3.15;;;1.58;;
16727;SDS011;8482;54.396;18.590;2022-09-03T07:36:34;2.78;;;1.40;;
16727;SDS011;8482;54.396;18.590;2022-09-03T07:39:11;1.80;;;1.20;;
16727;SDS011;8482;54.396;18.590;2022-09-03T07:41:39;1.65;;;1.00;;
16727;SDS011;8482;54.396;18.590;2022-09-03T07:44:10;1.35;;;1.00;;
16727;SDS011;8482;54.396;18.590;2022-09-03T07:46:39;2.30;;;1.13;;
16727;SDS011;8482;54.396;18.590;2022-09-03T07:49:05;1.35;;;0.80;;
16727;SDS011;8482;54.396;18.590;2022-09-03T07:51:32;2.05;;;1.00;;
16727;SDS011;8482;54.396;18.590;2022-09-03T07:54:04;0.85;;;0.70;;
16727;SDS011;8482;54.396;18.590;2022-09-03T07:56:35;1.65;;;0.95;;
16727;SDS011;8482;54.396;18.590;2022-09-03T07:59:04;1.30;;;0.80;;
16727;SDS011;8482;54.396;18.590;2022-09-03T08:01:30;1.77;;;0.80;;
16727;SDS011;8482;54.396;18.590;2022-09-03T08:03:58;0.88;;;0.68;;
16727;SDS011;8482;54.396;18.590;2022-09-03T08:06:26;0.80;;;0.70;;
16727;SDS011;8482;54.396;18.590;2022-09-03T08:08:54;0.65;;;0.65;;
16727;SDS011;8482;54.396;18.590;2022-09-03T08:11:24;1.23;;;0.80;;
16727;SDS011;8482;54.396;18.590;2022-09-03T08:13:55;1.10;;;0.80;;
16727;SDS011;8482;54.396;18.590;2022-09-03T08:16:30;0.70;;;0.70;;
16727;SDS011;8482;54.396;18.590;2022-09-03T08:18:59;0.75;;;0.70;;
16727;SDS011;8482;54.396;18.590;2022-09-03T08:21:25;0.68;;;0.65;;
16727;SDS011;8482;54.396;18.590;2022-09-03T08:23:52;0.88;;;0.50;;
16727;SDS011;8482;54.396;18.590;2022-09-03T08:26:26;0.60;;;0.60;;
16727;SDS011;8482;54.396;18.590;2022-09-03T08:28:58;1.00;;;0.70;;
16727;SDS011;8482;54.396;18.590;2022-09-03T08:31:24;1.38;;;0.80;;
16727;SDS011;8482;54.396;18.590;2022-09-03T08:33:52;0.73;;;0.70;;
16727;SDS011;8482;54.396;18.590;2022-09-03T08:36:22;0.60;;;0.57;;
16727;SDS011;8482;54.396;18.590;2022-09-03T08:38:54;0.50;;;0.50;;
16727;SDS011;8482;54.396;18.590;2022-09-03T08:44:42;0.60;;;0.60;;
16727;SDS011;8482;54.396;18.590;2022-09-03T08:47:23;0.60;;;0.60;;
16727;SDS011;8482;54.396;18.590;2022-09-03T08:49:55;0.50;;;0.50;;
16727;SDS011;8482;54.396;18.590;2022-09-03T08:55:30;0.60;;;0.60;;
16727;SDS011;8482;54.396;18.590;2022-09-03T08:58:17;0.55;;;0.55;;
16727;SDS011;8482;54.396;18.590;2022-09-03T09:12:16;0.70;;;0.50;;
16727;SDS011;8482;54.396;18.590;2022-09-03T09:21:11;0.50;;;0.50;;
16727;SDS011;8482;54.396;18.590;2022-09-03T09:23:52;0.40;;;0.40;;
16727;SDS011;8482;54.396;18.590;2022-09-03T09:26:28;0.63;;;0.50;;
16727;SDS011;8482;54.396;18.590;2022-09-03T09:29:03;0.60;;;0.60;;
16727;SDS011;8482;54.396;18.590;2022-09-03T09:31:34;0.50;;;0.50;;
16727;SDS011;8482;54.396;18.590;2022-09-03T09:34:09;0.50;;;0.50;;
16727;SDS011;8482;54.396;18.590;2022-09-03T09:36:42;0.40;;;0.40;;
16727;SDS011;8482;54.396;18.590;2022-09-03T09:39:17;0.73;;;0.60;;
16727;SDS011;8482;54.396;18.590;2022-09-03T09:41:56;0.60;;;0.60;;
16727;SDS011;8482;54.396;18.590;2022-09-03T09:44:23;0.50;;;0.50;;
16727;SDS011;8482;54.396;18.590;2022-09-03T09:46:50;0.75;;;0.65;;
16727;SDS011;8482;54.396;18.590;2022-09-03T09:49:34;0.50;;;0.50;;
16727;SDS011;8482;54.396;18.590;2022-09-03T09:52:17;0.68;;;0.63;;
16727;SDS011;8482;54.396;18.590;2022-09-03T09:54:46;0.55;;;0.50;;
16727;SDS011;8482;54.396;18.590;2022-09-03T09:57:16;1.25;;;0.60;;
16727;SDS011;8482;54.396;18.590;2022-09-03T09:59:47;0.40;;;0.40;;
16727;SDS011;8482;54.396;18.590;2022-09-03T10:02:24;0.50;;;0.50;;
16727;SDS011;8482;54.396;18.590;2022-09-03T10:04:57;0.52;;;0.52;;
16727;SDS011;8482;54.396;18.590;2022-09-03T10:07:54;0.77;;;0.70;;
16727;SDS011;8482;54.396;18.590;2022-09-03T10:10:35;1.13;;;0.60;;
16727;SDS011;8482;54.396;18.590;2022-09-03T10:13:13;0.60;;;0.60;;
16727;SDS011;8482;54.396;18.590;2022-09-03T10:26:29;0.70;;;0.60;;
16727;SDS011;8482;54.396;18.590;2022-09-03T10:28:58;0.63;;;0.60;;
16727;SDS011;8482;54.396;18.590;2022-09-03T10:37:34;1.00;;;0.65;;
16727;SDS011;8482;54.396;18.590;2022-09-03T10:43:03;0.50;;;0.50;;
16727;SDS011;8482;54.396;18.590;2022-09-03T10:54:07;0.50;;;0.50;;
16727;SDS011;8482;54.396;18.590;2022-09-03T10:59:59;0.50;;;0.50;;
16727;SDS011;8482;54.396;18.590;2022-09-03T11:02:52;0.57;;;0.57;;
16727;SDS011;8482;54.396;18.590;2022-09-03T11:08:24;0.70;;;0.52;;
16727;SDS011;8482;54.396;18.590;2022-09-03T11:11:02;0.40;;;0.40;;
16727;SDS011;8482;54.396;18.590;2022-09-03T11:13:38;0.65;;;0.65;;
16727;SDS011;8482;54.396;18.590;2022-09-03T11:16:33;0.50;;;0.50;;
16727;SDS011;8482;54.396;18.590;2022-09-03T11:19:13;0.60;;;0.60;;
16727;SDS011;8482;54.396;18.590;2022-09-03T11:21:44;0.50;;;0.50;;
16727;SDS011;8482;54.396;18.590;2022-09-03T11:24:15;0.55;;;0.55;;
16727;SDS011;8482;54.396;18.590;2022-09-03T11:26:49;0.50;;;0.50;;
16727;SDS011;8482;54.396;18.590;2022-09-03T11:30:12;0.60;;;0.60;;
16727;SDS011;8482;54.396;18.590;2022-09-03T11:32:51;0.57;;;0.57;;
16727;SDS011;8482;54.396;18.590;2022-09-03T11:38:02;0.45;;;0.45;;
16727;SDS011;8482;54.396;18.590;2022-09-03T11:40:57;0.63;;;0.63;;
16727;SDS011;8482;54.396;18.590;2022-09-03T11:48:51;0.40;;;0.40;;
16727;SDS011;8482;54.396;18.590;2022-09-03T11:51:39;0.60;;;0.60;;
16727;SDS011;8482;54.396;18.590;2022-09-03T11:56:40;0.65;;;0.40;;
16727;SDS011;8482;54.396;18.590;2022-09-03T12:04:21;0.50;;;0.50;;
16727;SDS011;8482;54.396;18.590;2022-09-03T12:09:55;0.47;;;0.47;;
16727;SDS011;8482;54.396;18.590;2022-09-03T12:16:05;0.85;;;0.40;;
16727;SDS011;8482;54.396;18.590;2022-09-03T12:18:49;0.73;;;0.45;;
16727;SDS011;8482;54.396;18.590;2022-09-03T12:21:21;0.47;;;0.47;;
16727;SDS011;8482;54.396;18.590;2022-09-03T12:23:49;0.50;;;0.50;;
16727;SDS011;8482;54.396;18.590;2022-09-03T12:26:21;0.60;;;0.60;;
16727;SDS011;8482;54.396;18.590;2022-09-03T12:28:51;0.55;;;0.40;;
16727;SDS011;8482;54.396;18.590;2022-09-03T12:31:24;0.60;;;0.60;;
16727;SDS011;8482;54.396;18.590;2022-09-03T12:36:44;0.40;;;0.40;;
16727;SDS011;8482;54.396;18.590;2022-09-03T12:41:58;0.60;;;0.60;;
16727;SDS011;8482;54.396;18.590;2022-09-03T12:47:01;0.45;;;0.45;;
16727;SDS011;8482;54.396;18.590;2022-09-03T12:49:45;0.40;;;0.40;;
16727;SDS011;8482;54.396;18.590;2022-09-03T12:52:19;0.50;;;0.50;;
16727;SDS011;8482;54.396;18.590;2022-09-03T12:55:01;0.55;;;0.55;;
16727;SDS011;8482;54.396;18.590;2022-09-03T12:57:59;0.60;;;0.55;;
16727;SDS011;8482;54.396;18.590;2022-09-03T13:00:43;0.50;;;0.50;;
16727;SDS011;8482;54.396;18.590;2022-09-03T13:03:23;0.60;;;0.60;;
16727;SDS011;8482;54.396;18.590;2022-09-03T13:06:14;0.75;;;0.52;;
16727;SDS011;8482;54.396;18.590;2022-09-03T13:08:50;0.60;;;0.60;;
16727;SDS011;8482;54.396;18.590;2022-09-03T13:11:19;0.52;;;0.52;;
16727;SDS011;8482;54.396;18.590;2022-09-03T13:14:10;0.50;;;0.50;;
16727;SDS011;8482;54.396;18.590;2022-09-03T13:25:21;0.70;;;0.70;;
16727;SDS011;8482;54.396;18.590;2022-09-03T13:31:35;0.73;;;0.63;;
16727;SDS011;8482;54.396;18.590;2022-09-03T13:34:20;0.43;;;0.43;;
16727;SDS011;8482;54.396;18.590;2022-09-03T13:39:56;0.95;;;0.60;;
16727;SDS011;8482;54.396;18.590;2022-09-03T13:42:38;0.65;;;0.63;;
16727;SDS011;8482;54.396;18.590;2022-09-03T13:48:20;0.60;;;0.60;;
16727;SDS011;8482;54.396;18.590;2022-09-03T13:51:18;0.52;;;0.52;;
16727;SDS011;8482;54.396;18.590;2022-09-03T13:54:23;0.90;;;0.73;;
16727;SDS011;8482;54.396;18.590;2022-09-03T13:56:59;0.57;;;0.52;;
16727;SDS011;8482;54.396;18.590;2022-09-03T14:10:42;0.50;;;0.50;;
16727;SDS011;8482;54.396;18.590;2022-09-03T14:13:52;1.30;;;0.65;;
16727;SDS011;8482;54.396;18.590;2022-09-03T14:16:48;0.80;;;0.80;;
16727;SDS011;8482;54.396;18.590;2022-09-03T14:19:37;0.63;;;0.60;;
16727;SDS011;8482;54.396;18.590;2022-09-03T14:22:16;0.75;;;0.75;;
16727;SDS011;8482;54.396;18.590;2022-09-03T14:24:51;0.55;;;0.55;;
16727;SDS011;8482;54.396;18.590;2022-09-03T14:27:28;0.50;;;0.50;;
16727;SDS011;8482;54.396;18.590;2022-09-03T14:29:57;0.88;;;0.73;;
16727;SDS011;8482;54.396;18.590;2022-09-03T14:35:30;0.73;;;0.43;;
16727;SDS011;8482;54.396;18.590;2022-09-03T14:41:20;0.73;;;0.60;;
16727;SDS011;8482;54.396;18.590;2022-09-03T14:53:18;0.50;;;0.50;;
16727;SDS011;8482;54.396;18.590;2022-09-03T15:08:41;1.00;;;0.60;;
16727;SDS011;8482;54.396;18.590;2022-09-03T15:11:13;0.50;;;0.50;;
16727;SDS011;8482;54.396;18.590;2022-09-03T15:13:46;0.82;;;0.60;;
16727;SDS011;8482;54.396;18.590;2022-09-03T15:30:55;1.13;;;0.50;;
16727;SDS011;8482;54.396;18.590;2022-09-03T15:33:39;0.50;;;0.50;;
16727;SDS011;8482;54.396;18.590;2022-09-03T15:36:23;0.45;;;0.45;;
16727;SDS011;8482;54.396;18.590;2022-09-03T15:39:08;0.82;;;0.75;;
16727;SDS011;8482;54.396;18.590;2022-09-03T15:44:20;0.50;;;0.50;;
16727;SDS011;8482;54.396;18.590;2022-09-03T15:49:42;0.57;;;0.57;;
16727;SDS011;8482;54.396;18.590;2022-09-03T15:55:25;0.50;;;0.50;;
16727;SDS011;8482;54.396;18.590;2022-09-03T15:58:10;0.80;;;0.60;;
16727;SDS011;8482;54.396;18.590;2022-09-03T16:00:57;0.75;;;0.60;;
16727;SDS011;8482;54.396;18.590;2022-09-03T16:06:30;0.57;;;0.50;;
16727;SDS011;8482;54.396;18.590;2022-09-03T16:12:33;0.47;;;0.47;;
16727;SDS011;8482;54.396;18.590;2022-09-03T16:15:26;0.50;;;0.50;;
16727;SDS011;8482;54.396;18.590;2022-09-03T16:20:42;0.60;;;0.60;;
16727;SDS011;8482;54.396;18.590;2022-09-03T16:26:49;0.75;;;0.70;;
16727;SDS011;8482;54.396;18.590;2022-09-03T16:29:24;0.57;;;0.50;;
16727;SDS011;8482;54.396;18.590;2022-09-03T16:34:48;0.63;;;0.50;;
16727;SDS011;8482;54.396;18.590;2022-09-03T16:40:41;0.70;;;0.70;;
16727;SDS011;8482;54.396;18.590;2022-09-03T16:47:02;0.60;;;0.60;;
16727;SDS011;8482;54.396;18.590;2022-09-03T16:52:30;0.50;;;0.50;;
16727;SDS011;8482;54.396;18.590;2022-09-03T17:00:21;0.50;;;0.47;;
16727;SDS011;8482;54.396;18.590;2022-09-03T17:03:24;0.75;;;0.60;;
16727;SDS011;8482;54.396;18.590;2022-09-03T17:09:18;0.68;;;0.60;;
16727;SDS011;8482;54.396;18.590;2022-09-03T17:15:45;0.70;;;0.60;;
16727;SDS011;8482;54.396;18.590;2022-09-03T17:27:02;0.68;;;0.60;;
16727;SDS011;8482;54.396;18.590;2022-09-03T17:29:54;0.60;;;0.60;;
16727;SDS011;8482;54.396;18.590;2022-09-03T17:38:53;0.50;;;0.50;;
16727;SDS011;8482;54.396;18.590;2022-09-03T17:41:45;0.90;;;0.60;;
16727;SDS011;8482;54.396;18.590;2022-09-03T17:52:40;0.73;;;0.60;;
16727;SDS011;8482;54.396;18.590;2022-09-03T17:55:16;0.95;;;0.70;;
16727;SDS011;8482;54.396;18.590;2022-09-03T17:57:53;0.80;;;0.70;;
16727;SDS011;8482;54.396;18.590;2022-09-03T18:01:11;0.60;;;0.60;;
16727;SDS011;8482;54.396;18.590;2022-09-03T18:03:52;0.60;;;0.60;;
16727;SDS011;8482;54.396;18.590;2022-09-03T18:09:36;0.50;;;0.50;;
16727;SDS011;8482;54.396;18.590;2022-09-03T18:12:37;0.50;;;0.50;;
16727;SDS011;8482;54.396;18.590;2022-09-03T18:15:24;1.05;;;0.70;;
16727;SDS011;8482;54.396;18.590;2022-09-03T18:18:11;0.75;;;0.68;;
16727;SDS011;8482;54.396;18.590;2022-09-03T18:20:50;0.60;;;0.60;;
16727;SDS011;8482;54.396;18.590;2022-09-03T18:26:42;0.50;;;0.50;;
16727;SDS011;8482;54.396;18.590;2022-09-03T18:29:38;0.95;;;0.60;;
16727;SDS011;8482;54.396;18.590;2022-09-03T18:32:36;0.73;;;0.73;;
16727;SDS011;8482;54.396;18.590;2022-09-03T18:35:20;0.73;;;0.68;;
16727;SDS011;8482;54.396;18.590;2022-09-03T18:38:11;0.63;;;0.60;;
16727;SDS011;8482;54.396;18.590;2022-09-03T18:50:25;0.60;;;0.60;;
16727;SDS011;8482;54.396;18.590;2022-09-03T18:56:58;0.45;;;0.45;;
16727;SDS011;8482;54.396;18.590;2022-09-03T19:03:25;0.70;;;0.60;;
16727;SDS011;8482;54.396;18.590;2022-09-03T19:19:24;0.65;;;0.52;;
16727;SDS011;8482;54.396;18.590;2022-09-03T19:22:39;0.70;;;0.70;;
16727;SDS011;8482;54.396;18.590;2022-09-03T19:25:26;0.70;;;0.70;;
16727;SDS011;8482;54.396;18.590;2022-09-03T19:37:44;0.77;;;0.70;;
16727;SDS011;8482;54.396;18.590;2022-09-03T19:44:05;1.10;;;0.80;;
16727;SDS011;8482;54.396;18.590;2022-09-03T19:51:46;1.15;;;0.90;;
16727;SDS011;8482;54.396;18.590;2022-09-03T19:54:29;1.27;;;0.90;;
16727;SDS011;8482;54.396;18.590;2022-09-03T19:57:14;1.58;;;1.00;;
16727;SDS011;8482;54.396;18.590;2022-09-03T20:00:04;1.40;;;1.10;;
16727;SDS011;8482;54.396;18.590;2022-09-03T20:02:50;1.60;;;1.00;;
16727;SDS011;8482;54.396;18.590;2022-09-03T20:05:35;1.88;;;1.20;;
16727;SDS011;8482;54.396;18.590;2022-09-03T20:08:21;1.70;;;1.17;;
16727;SDS011;8482;54.396;18.590;2022-09-03T20:11:09;1.95;;;1.15;;
16727;SDS011;8482;54.396;18.590;2022-09-03T20:13:43;1.58;;;1.10;;
16727;SDS011;8482;54.396;18.590;2022-09-03T20:16:35;2.60;;;1.58;;
16727;SDS011;8482;54.396;18.590;2022-09-03T20:39:46;2.85;;;1.20;;
16727;SDS011;8482;54.396;18.590;2022-09-03T20:45:41;8.82;;;4.25;;
16727;SDS011;8482;54.396;18.590;2022-09-03T20:48:42;6.78;;;3.45;;
16727;SDS011;8482;54.396;18.590;2022-09-03T20:54:37;5.15;;;2.40;;
16727;SDS011;8482;54.396;18.590;2022-09-03T21:00:40;4.97;;;2.50;;
16727;SDS011;8482;54.396;18.590;2022-09-03T21:03:21;4.18;;;2.15;;
16727;SDS011;8482;54.396;18.590;2022-09-03T21:14:31;2.97;;;1.80;;
16727;SDS011;8482;54.396;18.590;2022-09-03T21:17:09;3.15;;;1.88;;
16727;SDS011;8482;54.396;18.590;2022-09-03T21:25:38;4.25;;;2.40;;
16727;SDS011;8482;54.396;18.590;2022-09-03T21:28:24;3.53;;;1.80;;
16727;SDS011;8482;54.396;18.590;2022-09-03T21:30:58;2.83;;;1.65;;
16727;SDS011;8482;54.396;18.590;2022-09-03T21:33:36;3.67;;;1.73;;
16727;SDS011;8482;54.396;18.590;2022-09-03T21:36:19;2.90;;;1.50;;
16727;SDS011;8482;54.396;18.590;2022-09-03T21:38:56;2.20;;;1.20;;
16727;SDS011;8482;54.396;18.590;2022-09-03T21:42:02;2.22;;;1.50;;
16727;SDS011;8482;54.396;18.590;2022-09-03T21:47:19;2.00;;;1.40;;
16727;SDS011;8482;54.396;18.590;2022-09-03T22:01:21;1.88;;;1.23;;
16727;SDS011;8482;54.396;18.590;2022-09-03T22:04:01;1.83;;;1.20;;
16727;SDS011;8482;54.396;18.590;2022-09-03T22:15:19;1.77;;;1.15;;
16727;SDS011;8482;54.396;18.590;2022-09-03T22:20:21;2.08;;;1.33;;
16727;SDS011;8482;54.396;18.590;2022-09-03T22:22:52;1.92;;;1.27;;
16727;SDS011;8482;54.396;18.590;2022-09-03T22:25:23;2.58;;;1.38;;
16727;SDS011;8482;54.396;18.590;2022-09-03T22:31:03;2.25;;;1.50;;